Marion, IN

4:42 PM EDT on August 28, 2016 (GMT -0400)
KB9CQZ Brinker Heights | | Change Station

Elev 890 ft 40.57 °N, 85.64 °W | Updated 1 second ago

Haze
Haze
88.2 °F
Feels Like 99 °F
N
0.0
Wind Variable Wind from WNW
Gusts 0.0 mph

Today
High -- | Low -- °F
--% Chance of Precip.
Yesterday
High -- | Low -- °F
Precip. -- in
Pressure 30.17 in
Visibility 5.0 miles
Clouds Overcast 4000 ft
Heat Index 99 °F
Dew Point 76 °F
Humidity 67%
Rainfall 0.00 in
Snow Depth Not available.
7:06 AM 8:20 PM
Waning Crescent, 13% visible
METAR KMZZ 282035Z AUTO 07003KT 5SM HZ OVC040 31/22 A3017 RMK AO2 T03080223
Pressure 30.17 in
Visibility 5.0 miles
Clouds Overcast 4000 ft
Heat Index 99 °F
Dew Point 76 °F
Humidity 67%
Rainfall 0.00 in
Snow Depth Not available.
7:06 AM 8:20 PM
Waning Crescent, 13% visible
METAR KMZZ 282035Z AUTO 07003KT 5SM HZ OVC040 31/22 A3017 RMK AO2 T03080223

10-Day Weather Forecast

Almanac

Astronomy

Aug. 28, 2016 Rise Set
Actual Time
Civil Twilight
Nautical Twilight
Astronomical Twilight
Moon
Length of Visible Light
Length of Day
Tomorrow will be .
, % of the Moon is Illuminated

Today's Extremes

State Highs State Lows

Community

WunderPhotos

Upload Photos

1,935,689 photos uploaded!

WunderBlog® & News

Nearby

Air Quality

  Air Quality AQ Index Pollutant
Not available.

Snow Depth

Station Depth Elevation

Earthquake Activity

City Distance Mag. Time & Date
Minimum magnitude displayed is 2.5.

Coastal Water Temperatures

Place Temperature

Stations

Nearby Weather Stations

Station Location Temp. Windchill Dew Point Humidity Wind Precip. Elev Updated Type
                   

Watches & Warnings

There are currently no watches in effect.